Time;durP1;ratioP1;P1;durP2;ratioP2;P2;SDS_P1;SDS_P2;PMS_P1;PMS_P2;Temp;Humidity;BMP_temperature;BMP_pressure;BME280_temperature;BME280_humidity;BME280_pressure;Samples;Min_cycle;Max_cycle;Signal;HPM_P1;HPM_P2
2023/05/01 04:06:48;;;;;;;;;30.50;28.00;;;;;;;;5938719;39;10000357;-63
2023/05/01 10:11:30;;;;;;;;;15.50;15.50;;;;;;;;6131352;39;10000821;-60
2023/05/01 10:17:35;;;;;;;;;17.00;17.00;;;;;;;;6490807;39;8972;-61
2023/05/01 10:23:38;;;;;;;;;16.33;16.33;;;;;;;;6492395;46;8861;-61
2023/05/01 10:29:41;;;;;;;;;14.00;10.25;;;;;;;;6491857;46;8939;-60
2023/05/01 10:35:53;;;;;;;;;15.25;15.25;;;;;;;;6490883;39;9588;-60
2023/05/01 10:42:18;;;;;;;;;17.33;17.33;;;;;;;;6492390;46;8975;-61
2023/05/01 10:48:39;;;;;;;;;14.00;14.00;;;;;;;;6492062;39;8881;-60
2023/05/01 10:54:41;;;;;;;;;16.00;15.25;;;;;;;;6492489;31;8914;-59
2023/05/01 11:01:22;;;;;;;;;13.25;13.25;;;;;;;;6491196;39;8919;-61
2023/05/01 11:07:30;;;;;;;;;17.00;15.75;;;;;;;;6492728;39;9965;-59
2023/05/01 11:14:03;;;;;;;;;13.75;13.75;;;;;;;;6489192;39;8989;-60
2023/05/01 11:20:23;;;;;;;;;12.00;12.00;;;;;;;;6491813;39;8964;-60
2023/05/01 11:26:27;;;;;;;;;13.25;13.25;;;;;;;;6491015;39;8940;-60
2023/05/01 11:32:36;;;;;;;;;15.00;13.75;;;;;;;;6491841;39;8883;-60
2023/05/01 11:38:50;;;;;;;;;21.75;21.25;;;;;;;;6491112;46;9010;-60
2023/05/01 11:45:09;;;;;;;;;16.75;16.75;;;;;;;;6491120;46;8951;-60
2023/05/01 11:51:12;;;;;;;;;16.25;16.25;;;;;;;;6492314;31;8886;-61
2023/05/01 11:57:18;;;;;;;;;12.00;12.00;;;;;;;;6490376;39;8918;-60
2023/05/01 12:03:21;;;;;;;;;12.75;12.75;;;;;;;;6491144;39;8944;-59
2023/05/01 12:09:28;;;;;;;;;12.50;12.00;;;;;;;;6491331;31;8911;-60
2023/05/01 12:15:37;;;;;;;;;11.50;10.50;;;;;;;;6491621;46;8862;-59
2023/05/01 12:21:42;;;;;;;;;13.50;13.00;;;;;;;;6491804;39;9019;-60
2023/05/01 12:27:44;;;;;;;;;13.75;12.25;;;;;;;;6491624;31;8984;-60
2023/05/01 12:34:04;;;;;;;;;17.25;15.00;;;;;;;;6491982;39;9007;-60
2023/05/01 12:40:15;;;;;;;;;11.33;11.33;;;;;;;;6491584;31;8965;-60
2023/05/01 12:46:21;;;;;;;;;15.00;13.00;;;;;;;;6489877;39;8865;-59
2023/05/01 12:52:27;;;;;;;;;13.50;12.50;;;;;;;;6490651;39;8907;-59
2023/05/01 12:58:37;;;;;;;;;17.00;15.75;;;;;;;;6490667;47;8936;-59
2023/05/01 13:04:42;;;;;;;;;10.00;9.75;;;;;;;;6491633;31;8952;-60
2023/05/01 13:10:49;;;;;;;;;24.33;23.33;;;;;;;;6492881;31;8983;-60
2023/05/01 13:16:54;;;;;;;;;16.75;14.50;;;;;;;;6493968;31;8899;-59
2023/05/01 13:22:57;;;;;;;;;27.50;25.50;;;;;;;;6492501;39;8944;-59
2023/05/01 13:29:02;;;;;;;;;30.50;29.00;;;;;;;;6480229;39;8947;-60
2023/05/01 13:35:07;;;;;;;;;13.75;12.25;;;;;;;;6493049;39;8905;-61
2023/05/01 13:41:18;;;;;;;;;12.75;11.50;;;;;;;;7407760;36;9097;-59
2023/05/01 13:47:25;;;;;;;;;13.00;11.75;;;;;;;;6492770;39;9067;-60
2023/05/01 13:53:29;;;;;;;;;7.25;5.75;;;;;;;;6491883;39;8915;-59
2023/05/01 13:59:42;;;;;;;;;13.50;12.75;;;;;;;;6492687;39;8881;-60
2023/05/01 14:05:46;;;;;;;;;16.33;14.33;;;;;;;;6492838;39;9035;-61
2023/05/01 14:11:54;;;;;;;;;15.67;13.67;;;;;;;;6492391;31;8877;-60
2023/05/01 14:17:59;;;;;;;;;29.00;27.25;;;;;;;;6492030;39;8935;-60
2023/05/01 14:24:03;;;;;;;;;24.00;22.67;;;;;;;;6491221;46;8932;-60
2023/05/01 14:30:22;;;;;;;;;15.00;13.75;;;;;;;;6492895;39;8872;-60
2023/05/01 14:36:27;;;;;;;;;14.75;13.00;;;;;;;;6492199;39;8905;-61
2023/05/01 14:42:30;;;;;;;;;13.25;13.25;;;;;;;;6491998;39;8946;-60
2023/05/01 14:48:35;;;;;;;;;11.75;11.75;;;;;;;;6491816;39;8920;-60
2023/05/01 14:54:45;;;;;;;;;12.75;11.75;;;;;;;;6490909;46;8879;-61
2023/05/01 15:00:47;;;;;;;;;12.25;11.50;;;;;;;;6492885;31;8956;-62
2023/05/01 15:06:52;;;;;;;;;13.67;12.33;;;;;;;;6491505;46;8923;-60
2023/05/01 15:12:56;;;;;;;;;15.00;11.75;;;;;;;;6489566;39;8955;-61
2023/05/01 15:18:58;;;;;;;;;23.00;19.33;;;;;;;;6488944;46;9015;-59
2023/05/01 15:25:02;;;;;;;;;14.75;14.75;;;;;;;;6488868;39;8932;-60
2023/05/01 15:31:06;;;;;;;;;17.00;16.75;;;;;;;;6489442;39;8916;-59
2023/05/01 15:37:09;;;;;;;;;10.75;10.75;;;;;;;;6489626;39;8943;-60
2023/05/01 15:43:11;;;;;;;;;13.00;12.33;;;;;;;;6489381;46;8883;-60
2023/05/01 15:49:15;;;;;;;;;17.00;17.00;;;;;;;;6489760;39;8885;-60
2023/05/01 15:55:20;;;;;;;;;21.00;20.00;;;;;;;;6489262;46;8919;-59
2023/05/01 16:01:22;;;;;;;;;14.50;14.25;;;;;;;;6490083;46;8852;-60
2023/05/01 16:07:28;;;;;;;;;13.33;13.00;;;;;;;;6489486;46;8939;-60
2023/05/01 16:13:37;;;;;;;;;17.33;17.33;;;;;;;;6488158;31;8872;-60
2023/05/01 16:19:48;;;;;;;;;14.00;14.00;;;;;;;;6490040;31;9768;-61
2023/05/01 16:25:55;;;;;;;;;18.00;17.33;;;;;;;;6488787;46;8865;-60
2023/05/01 16:31:59;;;;;;;;;17.00;15.00;;;;;;;;6489841;39;9032;-59
2023/05/01 16:38:04;;;;;;;;;18.00;13.67;;;;;;;;6488901;46;9093;-61
2023/05/01 16:44:07;;;;;;;;;15.33;14.33;;;;;;;;6489635;31;8916;-61
2023/05/01 16:50:11;;;;;;;;;17.67;17.67;;;;;;;;6489533;46;8836;-60
2023/05/01 16:56:16;;;;;;;;;19.33;18.33;;;;;;;;6488146;47;8892;-60
2023/05/01 17:02:21;;;;;;;;;15.67;15.33;;;;;;;;6489113;39;8893;-61
2023/05/01 17:08:26;;;;;;;;;17.67;16.67;;;;;;;;6489558;39;8968;-62
2023/05/01 17:14:32;;;;;;;;;17.00;15.00;;;;;;;;6488946;39;8896;-60
2023/05/01 17:20:35;;;;;;;;;17.33;15.33;;;;;;;;6488179;39;8981;-60
2023/05/01 17:26:39;;;;;;;;;18.67;16.67;;;;;;;;6489000;39;8865;-60
2023/05/01 17:32:42;;;;;;;;;14.67;14.67;;;;;;;;6488719;47;8923;-60
2023/05/01 17:38:45;;;;;;;;;21.67;21.33;;;;;;;;6488390;31;8909;-60
2023/05/01 17:44:49;;;;;;;;;20.67;19.67;;;;;;;;6488253;47;8895;-60
2023/05/01 17:50:55;;;;;;;;;20.67;20.00;;;;;;;;6489370;39;9028;-60
2023/05/01 17:57:02;;;;;;;;;24.33;23.67;;;;;;;;6491017;39;9123;-60
2023/05/01 18:03:07;;;;;;;;;23.67;22.00;;;;;;;;6490252;46;8951;-60
2023/05/01 18:09:12;;;;;;;;;24.33;23.67;;;;;;;;6489887;39;8900;-59
2023/05/01 18:15:17;;;;;;;;;25.33;22.67;;;;;;;;6489702;31;8849;-60
2023/05/01 18:21:24;;;;;;;;;26.00;24.00;;;;;;;;6489864;39;8860;-61
2023/05/01 18:27:28;;;;;;;;;26.67;24.00;;;;;;;;6489855;39;8881;-61
2023/05/01 18:33:33;;;;;;;;;25.00;24.00;;;;;;;;6489291;39;8895;-59
2023/05/01 18:39:37;;;;;;;;;27.67;24.00;;;;;;;;6489375;39;9564;-60
2023/05/01 18:45:42;;;;;;;;;20.00;20.00;;;;;;;;6489866;46;8864;-61
2023/05/01 18:51:47;;;;;;;;;24.33;23.33;;;;;;;;6488614;46;8911;-63
2023/05/01 18:57:50;;;;;;;;;25.67;25.67;;;;;;;;6490483;31;9562;-59
2023/05/01 19:03:57;;;;;;;;;28.33;26.67;;;;;;;;6489217;46;8905;-61
2023/05/01 19:10:03;;;;;;;;;27.67;22.00;;;;;;;;6489636;39;8962;-60
2023/05/01 19:16:06;;;;;;;;;24.33;22.67;;;;;;;;6489868;39;8872;-59
2023/05/01 19:22:15;;;;;;;;;30.00;27.00;;;;;;;;6489246;46;8823;-62
2023/05/01 19:28:21;;;;;;;;;29.33;26.33;;;;;;;;6488845;39;8889;-61
2023/05/01 19:34:26;;;;;;;;;29.33;29.00;;;;;;;;6489352;39;9766;-60
2023/05/01 19:40:29;;;;;;;;;29.67;27.00;;;;;;;;6488138;39;8913;-60
2023/05/01 19:46:32;;;;;;;;;30.67;30.33;;;;;;;;7134063;36;8903;-60
2023/05/01 19:52:39;;;;;;;;;43.25;38.00;;;;;;;;7556415;31;8957;-61
2023/05/01 19:58:45;;;;;;;;;47.25;38.50;;;;;;;;6488953;39;8948;-60
2023/05/01 20:04:52;;;;;;;;;41.50;37.00;;;;;;;;6488436;46;8948;-60
2023/05/01 20:10:55;;;;;;;;;39.75;36.25;;;;;;;;6489188;39;8962;-60
2023/05/01 20:16:59;;;;;;;;;40.25;37.75;;;;;;;;6489519;31;8908;-60
2023/05/01 20:23:10;;;;;;;;;40.50;36.75;;;;;;;;6489582;39;9669;-60
2023/05/01 20:29:14;;;;;;;;;43.00;36.50;;;;;;;;6489432;39;8825;-61
2023/05/01 20:35:19;;;;;;;;;38.25;32.50;;;;;;;;6488762;31;8840;-60
2023/05/01 20:41:24;;;;;;;;;36.67;34.67;;;;;;;;6317066;36;10000358;-59
2023/05/01 20:47:28;;;;;;;;;40.67;34.33;;;;;;;;6488842;39;8882;-61
2023/05/01 20:53:32;;;;;;;;;44.50;36.75;;;;;;;;6488143;39;8900;-59
2023/05/01 20:59:37;;;;;;;;;40.75;36.00;;;;;;;;6488123;31;8896;-61
2023/05/01 21:05:41;;;;;;;;;40.25;37.75;;;;;;;;6488513;39;8918;-60
2023/05/01 21:11:48;;;;;;;;;36.25;35.00;;;;;;;;6488678;39;8950;-60
2023/05/01 21:17:53;;;;;;;;;40.00;35.67;;;;;;;;6488550;47;8988;-60
2023/05/01 21:23:57;;;;;;;;;35.67;32.00;;;;;;;;6488502;39;8851;-59
2023/05/01 21:30:00;;;;;;;;;34.00;33.00;;;;;;;;6489644;39;8996;-61
2023/05/01 21:36:06;;;;;;;;;32.00;30.25;;;;;;;;6488975;46;8891;-60
2023/05/01 21:42:08;;;;;;;;;29.33;26.67;;;;;;;;6490639;39;8904;-61
2023/05/01 21:48:17;;;;;;;;;31.00;29.50;;;;;;;;6490050;39;8918;-60
2023/05/01 21:54:23;;;;;;;;;37.00;34.00;;;;;;;;6489404;46;8879;-61
2023/05/01 22:00:26;;;;;;;;;37.50;32.50;;;;;;;;6489881;39;8911;-60
2023/05/01 22:06:30;;;;;;;;;28.25;25.75;;;;;;;;6488757;46;8959;-62
2023/05/01 22:12:34;;;;;;;;;39.25;34.50;;;;;;;;6489776;39;8858;-60
2023/05/01 22:18:40;;;;;;;;;31.25;28.25;;;;;;;;6446160;36;5001662;-60
2023/05/01 22:24:42;;;;;;;;;28.50;25.00;;;;;;;;6489017;39;8978;-61
2023/05/01 22:30:46;;;;;;;;;27.50;27.50;;;;;;;;6489520;31;8849;-60
2023/05/01 22:36:51;;;;;;;;;27.25;25.25;;;;;;;;6489490;39;9014;-60
2023/05/01 22:42:56;;;;;;;;;24.50;24.00;;;;;;;;6490559;39;8893;-60
2023/05/01 22:49:02;;;;;;;;;25.50;25.50;;;;;;;;6490238;39;8853;-61
2023/05/01 22:55:06;;;;;;;;;17.00;16.50;;;;;;;;6489867;39;8900;-59
2023/05/01 23:01:13;;;;;;;;;22.00;21.25;;;;;;;;6489335;31;8935;-60
2023/05/01 23:07:21;;;;;;;;;24.50;23.00;;;;;;;;6488601;46;9032;-60
2023/05/01 23:13:26;;;;;;;;;24.25;23.00;;;;;;;;6489680;39;8864;-59
2023/05/01 23:19:30;;;;;;;;;20.75;19.25;;;;;;;;6491416;36;8880;-61
2023/05/01 23:25:32;;;;;;;;;28.00;21.25;;;;;;;;6489209;39;8875;-60
2023/05/01 23:31:36;;;;;;;;;22.00;17.00;;;;;;;;6489889;39;8860;-59
2023/05/01 23:37:39;;;;;;;;;23.50;20.75;;;;;;;;6488280;31;8875;-61
2023/05/01 23:43:41;;;;;;;;;26.25;19.75;;;;;;;;6489513;39;9551;-61
2023/05/01 23:49:45;;;;;;;;;20.25;20.25;;;;;;;;6488198;47;8907;-61
2023/05/01 23:55:48;;;;;;;;;22.00;18.75;;;;;;;;6489226;46;8852;-60
